sensor_id;sensor_type;location;lat;lon;timestamp;P1;durP1;ratioP1;P2;durP2;ratioP2
77524;SDS011;66638;50.050;21.124;2024-01-06T00:01:40;58.70;;;34.30;;
77524;SDS011;66638;50.050;21.124;2024-01-06T00:04:26;56.50;;;32.60;;
77524;SDS011;66638;50.050;21.124;2024-01-06T00:07:12;56.60;;;32.70;;
77524;SDS011;66638;50.050;21.124;2024-01-06T00:09:59;57.80;;;33.80;;
77524;SDS011;66638;50.050;21.124;2024-01-06T00:12:45;61.80;;;33.20;;
77524;SDS011;66638;50.050;21.124;2024-01-06T00:15:31;51.30;;;29.40;;
77524;SDS011;66638;50.050;21.124;2024-01-06T00:18:16;57.30;;;32.60;;
77524;SDS011;66638;50.050;21.124;2024-01-06T00:21:02;58.20;;;33.00;;
77524;SDS011;66638;50.050;21.124;2024-01-06T00:23:48;65.20;;;33.50;;
77524;SDS011;66638;50.050;21.124;2024-01-06T00:26:34;61.90;;;32.60;;
77524;SDS011;66638;50.050;21.124;2024-01-06T00:29:20;58.70;;;32.60;;
77524;SDS011;66638;50.050;21.124;2024-01-06T00:32:06;56.20;;;31.70;;
77524;SDS011;66638;50.050;21.124;2024-01-06T00:34:52;55.30;;;33.70;;
77524;SDS011;66638;50.050;21.124;2024-01-06T00:37:38;62.00;;;35.50;;
77524;SDS011;66638;50.050;21.124;2024-01-06T00:40:24;63.00;;;33.40;;
77524;SDS011;66638;50.050;21.124;2024-01-06T00:43:11;54.80;;;31.60;;
77524;SDS011;66638;50.050;21.124;2024-01-06T00:45:57;63.00;;;36.40;;
77524;SDS011;66638;50.050;21.124;2024-01-06T00:48:43;57.70;;;35.10;;
77524;SDS011;66638;50.050;21.124;2024-01-06T00:51:29;63.30;;;34.60;;
77524;SDS011;66638;50.050;21.124;2024-01-06T00:54:15;57.30;;;33.20;;
77524;SDS011;66638;50.050;21.124;2024-01-06T00:57:00;55.00;;;34.00;;
77524;SDS011;66638;50.050;21.124;2024-01-06T00:59:46;56.70;;;33.10;;
77524;SDS011;66638;50.050;21.124;2024-01-06T01:02:32;52.90;;;32.00;;
77524;SDS011;66638;50.050;21.124;2024-01-06T01:05:18;50.10;;;31.20;;
77524;SDS011;66638;50.050;21.124;2024-01-06T01:08:05;53.50;;;30.20;;
77524;SDS011;66638;50.050;21.124;2024-01-06T01:10:51;51.50;;;30.80;;
77524;SDS011;66638;50.050;21.124;2024-01-06T01:13:37;60.90;;;31.10;;
77524;SDS011;66638;50.050;21.124;2024-01-06T01:16:22;43.30;;;26.10;;
77524;SDS011;66638;50.050;21.124;2024-01-06T01:19:08;52.70;;;30.50;;
77524;SDS011;66638;50.050;21.124;2024-01-06T01:21:54;53.10;;;30.10;;
77524;SDS011;66638;50.050;21.124;2024-01-06T01:24:42;58.90;;;31.20;;
77524;SDS011;66638;50.050;21.124;2024-01-06T01:27:28;56.20;;;32.90;;
77524;SDS011;66638;50.050;21.124;2024-01-06T01:30:13;51.90;;;28.40;;
77524;SDS011;66638;50.050;21.124;2024-01-06T01:33:00;50.10;;;29.60;;
77524;SDS011;66638;50.050;21.124;2024-01-06T01:35:46;49.70;;;27.70;;
77524;SDS011;66638;50.050;21.124;2024-01-06T01:38:32;56.40;;;29.60;;
77524;SDS011;66638;50.050;21.124;2024-01-06T01:41:18;51.20;;;30.40;;
77524;SDS011;66638;50.050;21.124;2024-01-06T01:44:03;52.70;;;29.50;;
77524;SDS011;66638;50.050;21.124;2024-01-06T01:46:49;50.40;;;26.80;;
77524;SDS011;66638;50.050;21.124;2024-01-06T01:49:35;54.40;;;29.70;;
77524;SDS011;66638;50.050;21.124;2024-01-06T01:52:21;43.40;;;25.10;;
77524;SDS011;66638;50.050;21.124;2024-01-06T01:55:08;49.70;;;25.90;;
77524;SDS011;66638;50.050;21.124;2024-01-06T01:57:54;49.60;;;27.60;;
77524;SDS011;66638;50.050;21.124;2024-01-06T02:00:40;51.10;;;28.90;;
77524;SDS011;66638;50.050;21.124;2024-01-06T02:03:26;49.40;;;30.00;;
77524;SDS011;66638;50.050;21.124;2024-01-06T02:06:16;46.50;;;27.60;;
77524;SDS011;66638;50.050;21.124;2024-01-06T02:09:01;49.40;;;27.50;;
77524;SDS011;66638;50.050;21.124;2024-01-06T02:11:47;46.20;;;26.30;;
77524;SDS011;66638;50.050;21.124;2024-01-06T02:14:33;44.80;;;25.10;;
77524;SDS011;66638;50.050;21.124;2024-01-06T02:17:19;46.10;;;26.50;;
77524;SDS011;66638;50.050;21.124;2024-01-06T02:20:05;42.40;;;25.80;;
77524;SDS011;66638;50.050;21.124;2024-01-06T02:22:52;52.20;;;27.40;;
77524;SDS011;66638;50.050;21.124;2024-01-06T02:25:38;42.60;;;25.20;;
77524;SDS011;66638;50.050;21.124;2024-01-06T02:28:24;40.20;;;24.00;;
77524;SDS011;66638;50.050;21.124;2024-01-06T02:31:10;37.20;;;23.10;;
77524;SDS011;66638;50.050;21.124;2024-01-06T02:33:55;47.20;;;26.20;;
77524;SDS011;66638;50.050;21.124;2024-01-06T02:36:42;49.80;;;26.90;;
77524;SDS011;66638;50.050;21.124;2024-01-06T02:39:27;45.30;;;24.30;;
77524;SDS011;66638;50.050;21.124;2024-01-06T02:42:13;43.10;;;26.00;;
77524;SDS011;66638;50.050;21.124;2024-01-06T02:44:59;41.60;;;21.20;;
77524;SDS011;66638;50.050;21.124;2024-01-06T02:47:44;39.00;;;23.10;;
77524;SDS011;66638;50.050;21.124;2024-01-06T02:50:31;43.30;;;24.30;;
77524;SDS011;66638;50.050;21.124;2024-01-06T02:53:16;40.60;;;23.20;;
77524;SDS011;66638;50.050;21.124;2024-01-06T02:56:02;39.90;;;25.30;;
77524;SDS011;66638;50.050;21.124;2024-01-06T02:58:47;40.40;;;24.10;;
77524;SDS011;66638;50.050;21.124;2024-01-06T03:01:33;41.80;;;27.10;;
77524;SDS011;66638;50.050;21.124;2024-01-06T03:04:19;38.00;;;22.30;;
77524;SDS011;66638;50.050;21.124;2024-01-06T03:12:10;39.20;;;22.30;;
77524;SDS011;66638;50.050;21.124;2024-01-06T03:14:57;36.70;;;22.00;;
77524;SDS011;66638;50.050;21.124;2024-01-06T03:17:42;40.40;;;22.60;;
77524;SDS011;66638;50.050;21.124;2024-01-06T03:20:28;38.50;;;23.00;;
77524;SDS011;66638;50.050;21.124;2024-01-06T03:23:15;34.30;;;19.70;;
77524;SDS011;66638;50.050;21.124;2024-01-06T03:26:04;35.80;;;20.00;;
77524;SDS011;66638;50.050;21.124;2024-01-06T03:28:51;37.60;;;23.90;;
77524;SDS011;66638;50.050;21.124;2024-01-06T03:31:36;37.40;;;23.20;;
77524;SDS011;66638;50.050;21.124;2024-01-06T03:34:22;41.00;;;23.80;;
77524;SDS011;66638;50.050;21.124;2024-01-06T03:37:08;39.20;;;23.30;;
77524;SDS011;66638;50.050;21.124;2024-01-06T03:39:54;33.90;;;21.60;;
77524;SDS011;66638;50.050;21.124;2024-01-06T03:42:40;36.70;;;21.60;;
77524;SDS011;66638;50.050;21.124;2024-01-06T03:45:26;34.30;;;20.20;;
77524;SDS011;66638;50.050;21.124;2024-01-06T03:48:12;34.90;;;20.80;;
77524;SDS011;66638;50.050;21.124;2024-01-06T03:51:01;38.00;;;22.90;;
77524;SDS011;66638;50.050;21.124;2024-01-06T03:53:48;35.90;;;20.60;;
77524;SDS011;66638;50.050;21.124;2024-01-06T03:56:33;33.20;;;19.00;;
77524;SDS011;66638;50.050;21.124;2024-01-06T03:59:19;34.70;;;19.40;;
77524;SDS011;66638;50.050;21.124;2024-01-06T04:02:05;38.80;;;22.00;;
77524;SDS011;66638;50.050;21.124;2024-01-06T04:04:51;37.30;;;22.10;;
77524;SDS011;66638;50.050;21.124;2024-01-06T04:07:37;35.90;;;20.10;;
77524;SDS011;66638;50.050;21.124;2024-01-06T04:10:23;37.20;;;21.90;;
77524;SDS011;66638;50.050;21.124;2024-01-06T04:13:10;34.40;;;19.40;;
77524;SDS011;66638;50.050;21.124;2024-01-06T04:15:57;33.30;;;19.50;;
77524;SDS011;66638;50.050;21.124;2024-01-06T04:18:42;35.90;;;23.00;;
77524;SDS011;66638;50.050;21.124;2024-01-06T04:21:28;41.50;;;21.00;;
77524;SDS011;66638;50.050;21.124;2024-01-06T04:24:14;32.00;;;17.30;;
77524;SDS011;66638;50.050;21.124;2024-01-06T04:27:00;24.60;;;12.80;;
77524;SDS011;66638;50.050;21.124;2024-01-06T04:29:45;25.70;;;15.70;;
77524;SDS011;66638;50.050;21.124;2024-01-06T04:32:32;21.70;;;15.20;;
77524;SDS011;66638;50.050;21.124;2024-01-06T04:35:17;18.80;;;14.10;;
77524;SDS011;66638;50.050;21.124;2024-01-06T04:38:05;21.30;;;13.10;;
77524;SDS011;66638;50.050;21.124;2024-01-06T04:40:52;18.80;;;11.90;;
77524;SDS011;66638;50.050;21.124;2024-01-06T04:43:37;18.80;;;12.10;;
77524;SDS011;66638;50.050;21.124;2024-01-06T04:46:23;20.60;;;12.10;;
77524;SDS011;66638;50.050;21.124;2024-01-06T04:49:10;19.10;;;12.20;;
77524;SDS011;66638;50.050;21.124;2024-01-06T04:51:55;23.00;;;15.00;;
77524;SDS011;66638;50.050;21.124;2024-01-06T04:54:41;23.10;;;14.70;;
77524;SDS011;66638;50.050;21.124;2024-01-06T04:57:27;22.50;;;12.60;;
77524;SDS011;66638;50.050;21.124;2024-01-06T05:00:12;20.20;;;12.50;;
77524;SDS011;66638;50.050;21.124;2024-01-06T05:02:58;19.70;;;11.60;;
77524;SDS011;66638;50.050;21.124;2024-01-06T05:05:45;23.60;;;12.80;;
77524;SDS011;66638;50.050;21.124;2024-01-06T05:08:31;23.10;;;13.30;;
77524;SDS011;66638;50.050;21.124;2024-01-06T05:11:18;19.00;;;10.20;;
77524;SDS011;66638;50.050;21.124;2024-01-06T05:14:04;22.80;;;13.10;;
77524;SDS011;66638;50.050;21.124;2024-01-06T05:16:50;21.40;;;13.80;;
77524;SDS011;66638;50.050;21.124;2024-01-06T05:19:35;28.70;;;16.90;;
77524;SDS011;66638;50.050;21.124;2024-01-06T05:22:21;16.50;;;10.30;;
77524;SDS011;66638;50.050;21.124;2024-01-06T05:25:08;21.80;;;13.50;;
77524;SDS011;66638;50.050;21.124;2024-01-06T05:27:54;27.70;;;15.50;;
77524;SDS011;66638;50.050;21.124;2024-01-06T05:30:40;24.80;;;15.70;;
77524;SDS011;66638;50.050;21.124;2024-01-06T05:33:26;26.00;;;15.80;;
77524;SDS011;66638;50.050;21.124;2024-01-06T05:36:12;25.40;;;14.00;;
77524;SDS011;66638;50.050;21.124;2024-01-06T05:38:58;22.40;;;13.60;;
77524;SDS011;66638;50.050;21.124;2024-01-06T05:41:45;27.60;;;17.40;;
77524;SDS011;66638;50.050;21.124;2024-01-06T05:44:31;27.70;;;15.60;;
77524;SDS011;66638;50.050;21.124;2024-01-06T05:47:20;27.10;;;15.20;;
77524;SDS011;66638;50.050;21.124;2024-01-06T05:50:07;20.90;;;11.50;;
77524;SDS011;66638;50.050;21.124;2024-01-06T05:52:55;24.80;;;16.00;;
77524;SDS011;66638;50.050;21.124;2024-01-06T05:55:41;24.60;;;13.80;;
77524;SDS011;66638;50.050;21.124;2024-01-06T05:58:27;25.30;;;14.70;;
77524;SDS011;66638;50.050;21.124;2024-01-06T06:01:13;23.40;;;14.60;;
77524;SDS011;66638;50.050;21.124;2024-01-06T06:03:59;23.50;;;14.30;;
77524;SDS011;66638;50.050;21.124;2024-01-06T06:06:45;21.10;;;12.80;;
77524;SDS011;66638;50.050;21.124;2024-01-06T06:09:30;21.90;;;13.40;;
77524;SDS011;66638;50.050;21.124;2024-01-06T06:12:16;20.00;;;14.10;;
77524;SDS011;66638;50.050;21.124;2024-01-06T06:15:03;20.50;;;14.30;;
77524;SDS011;66638;50.050;21.124;2024-01-06T06:17:49;19.00;;;13.20;;
77524;SDS011;66638;50.050;21.124;2024-01-06T06:20:35;18.90;;;13.40;;
77524;SDS011;66638;50.050;21.124;2024-01-06T06:23:21;21.70;;;13.80;;
77524;SDS011;66638;50.050;21.124;2024-01-06T06:26:07;20.90;;;14.20;;
77524;SDS011;66638;50.050;21.124;2024-01-06T06:28:54;21.20;;;13.00;;
77524;SDS011;66638;50.050;21.124;2024-01-06T06:31:40;22.10;;;13.20;;
77524;SDS011;66638;50.050;21.124;2024-01-06T06:34:25;21.70;;;13.40;;
77524;SDS011;66638;50.050;21.124;2024-01-06T06:37:11;19.20;;;13.00;;
77524;SDS011;66638;50.050;21.124;2024-01-06T06:39:57;18.90;;;11.90;;
77524;SDS011;66638;50.050;21.124;2024-01-06T06:42:43;17.80;;;12.50;;
77524;SDS011;66638;50.050;21.124;2024-01-06T06:45:29;19.30;;;14.10;;
77524;SDS011;66638;50.050;21.124;2024-01-06T06:48:15;24.20;;;15.20;;
77524;SDS011;66638;50.050;21.124;2024-01-06T06:51:00;20.30;;;13.50;;
77524;SDS011;66638;50.050;21.124;2024-01-06T06:53:46;24.50;;;15.70;;
77524;SDS011;66638;50.050;21.124;2024-01-06T06:56:32;20.80;;;13.50;;
77524;SDS011;66638;50.050;21.124;2024-01-06T06:59:18;20.80;;;13.70;;
77524;SDS011;66638;50.050;21.124;2024-01-06T07:02:04;21.70;;;14.20;;
77524;SDS011;66638;50.050;21.124;2024-01-06T07:04:50;25.90;;;16.90;;
77524;SDS011;66638;50.050;21.124;2024-01-06T07:07:37;24.50;;;15.80;;
77524;SDS011;66638;50.050;21.124;2024-01-06T07:10:23;23.90;;;14.50;;
77524;SDS011;66638;50.050;21.124;2024-01-06T07:13:13;24.60;;;15.80;;
77524;SDS011;66638;50.050;21.124;2024-01-06T07:16:00;23.60;;;14.40;;
77524;SDS011;66638;50.050;21.124;2024-01-06T07:18:46;20.50;;;13.90;;
77524;SDS011;66638;50.050;21.124;2024-01-06T07:21:32;24.60;;;14.10;;
77524;SDS011;66638;50.050;21.124;2024-01-06T07:24:18;23.40;;;16.10;;
77524;SDS011;66638;50.050;21.124;2024-01-06T07:27:05;24.10;;;15.60;;
77524;SDS011;66638;50.050;21.124;2024-01-06T07:29:51;23.30;;;16.30;;
77524;SDS011;66638;50.050;21.124;2024-01-06T07:32:41;25.60;;;16.70;;
77524;SDS011;66638;50.050;21.124;2024-01-06T07:35:29;23.70;;;15.40;;
77524;SDS011;66638;50.050;21.124;2024-01-06T07:38:15;24.50;;;16.40;;
77524;SDS011;66638;50.050;21.124;2024-01-06T07:41:00;23.00;;;17.40;;
77524;SDS011;66638;50.050;21.124;2024-01-06T07:43:46;22.90;;;17.30;;
77524;SDS011;66638;50.050;21.124;2024-01-06T07:46:32;27.80;;;19.30;;
77524;SDS011;66638;50.050;21.124;2024-01-06T07:49:18;29.70;;;20.00;;
77524;SDS011;66638;50.050;21.124;2024-01-06T07:52:04;28.30;;;20.00;;
77524;SDS011;66638;50.050;21.124;2024-01-06T07:54:50;30.00;;;20.10;;
77524;SDS011;66638;50.050;21.124;2024-01-06T07:57:36;29.00;;;18.20;;
77524;SDS011;66638;50.050;21.124;2024-01-06T08:00:22;25.00;;;16.50;;
77524;SDS011;66638;50.050;21.124;2024-01-06T08:03:07;31.80;;;18.80;;
77524;SDS011;66638;50.050;21.124;2024-01-06T08:05:53;38.70;;;21.40;;
77524;SDS011;66638;50.050;21.124;2024-01-06T08:08:39;36.40;;;21.20;;
77524;SDS011;66638;50.050;21.124;2024-01-06T08:11:25;30.90;;;19.20;;
77524;SDS011;66638;50.050;21.124;2024-01-06T08:14:11;26.30;;;15.60;;
77524;SDS011;66638;50.050;21.124;2024-01-06T08:16:56;19.80;;;12.60;;
77524;SDS011;66638;50.050;21.124;2024-01-06T08:19:42;21.90;;;12.90;;
77524;SDS011;66638;50.050;21.124;2024-01-06T08:22:28;25.60;;;17.10;;
77524;SDS011;66638;50.050;21.124;2024-01-06T08:25:15;26.00;;;16.70;;
77524;SDS011;66638;50.050;21.124;2024-01-06T08:28:03;25.20;;;14.70;;
77524;SDS011;66638;50.050;21.124;2024-01-06T08:30:49;26.60;;;17.00;;
77524;SDS011;66638;50.050;21.124;2024-01-06T08:33:36;26.50;;;17.00;;
77524;SDS011;66638;50.050;21.124;2024-01-06T08:36:21;25.30;;;17.00;;
77524;SDS011;66638;50.050;21.124;2024-01-06T08:39:07;29.20;;;18.40;;
77524;SDS011;66638;50.050;21.124;2024-01-06T08:41:54;28.60;;;17.70;;
77524;SDS011;66638;50.050;21.124;2024-01-06T08:44:40;25.70;;;17.80;;
77524;SDS011;66638;50.050;21.124;2024-01-06T08:47:26;29.10;;;19.50;;
77524;SDS011;66638;50.050;21.124;2024-01-06T08:50:12;31.00;;;20.80;;
77524;SDS011;66638;50.050;21.124;2024-01-06T08:52:58;37.10;;;23.00;;
77524;SDS011;66638;50.050;21.124;2024-01-06T08:55:43;35.60;;;20.60;;
77524;SDS011;66638;50.050;21.124;2024-01-06T08:58:29;34.10;;;18.90;;
77524;SDS011;66638;50.050;21.124;2024-01-06T09:01:15;41.60;;;23.00;;
77524;SDS011;66638;50.050;21.124;2024-01-06T09:04:01;37.50;;;21.20;;
77524;SDS011;66638;50.050;21.124;2024-01-06T09:06:48;35.10;;;19.40;;
77524;SDS011;66638;50.050;21.124;2024-01-06T09:09:36;33.90;;;20.10;;
77524;SDS011;66638;50.050;21.124;2024-01-06T09:12:21;28.60;;;18.20;;
77524;SDS011;66638;50.050;21.124;2024-01-06T09:15:07;28.40;;;18.90;;
77524;SDS011;66638;50.050;21.124;2024-01-06T09:17:54;27.70;;;16.70;;
77524;SDS011;66638;50.050;21.124;2024-01-06T09:23:27;29.60;;;17.80;;
77524;SDS011;66638;50.050;21.124;2024-01-06T09:26:13;30.40;;;19.10;;
77524;SDS011;66638;50.050;21.124;2024-01-06T09:28:58;32.20;;;22.00;;
77524;SDS011;66638;50.050;21.124;2024-01-06T09:31:44;29.90;;;18.50;;
77524;SDS011;66638;50.050;21.124;2024-01-06T09:34:30;25.10;;;17.50;;
77524;SDS011;66638;50.050;21.124;2024-01-06T09:37:16;24.50;;;16.70;;
77524;SDS011;66638;50.050;21.124;2024-01-06T09:40:02;29.60;;;18.10;;
77524;SDS011;66638;50.050;21.124;2024-01-06T09:42:49;24.80;;;16.90;;
77524;SDS011;66638;50.050;21.124;2024-01-06T09:45:35;27.20;;;17.50;;
77524;SDS011;66638;50.050;21.124;2024-01-06T09:48:21;29.40;;;20.30;;
77524;SDS011;66638;50.050;21.124;2024-01-06T09:51:09;35.00;;;22.00;;
77524;SDS011;66638;50.050;21.124;2024-01-06T09:53:57;32.60;;;20.00;;
77524;SDS011;66638;50.050;21.124;2024-01-06T09:56:44;30.60;;;20.70;;
77524;SDS011;66638;50.050;21.124;2024-01-06T09:59:31;33.10;;;21.60;;
77524;SDS011;66638;50.050;21.124;2024-01-06T10:02:20;29.50;;;20.60;;
77524;SDS011;66638;50.050;21.124;2024-01-06T10:05:08;34.70;;;20.20;;
77524;SDS011;66638;50.050;21.124;2024-01-06T10:07:55;38.20;;;23.80;;
77524;SDS011;66638;50.050;21.124;2024-01-06T10:10:41;38.40;;;22.20;;
77524;SDS011;66638;50.050;21.124;2024-01-06T10:13:27;36.70;;;22.70;;
77524;SDS011;66638;50.050;21.124;2024-01-06T10:16:14;36.10;;;22.30;;
77524;SDS011;66638;50.050;21.124;2024-01-06T10:19:00;37.10;;;22.60;;
77524;SDS011;66638;50.050;21.124;2024-01-06T10:21:47;38.60;;;23.40;;
77524;SDS011;66638;50.050;21.124;2024-01-06T10:24:32;37.00;;;24.50;;
77524;SDS011;66638;50.050;21.124;2024-01-06T10:27:18;40.50;;;22.80;;
77524;SDS011;66638;50.050;21.124;2024-01-06T10:30:05;37.80;;;21.70;;
77524;SDS011;66638;50.050;21.124;2024-01-06T10:32:53;37.60;;;22.60;;
77524;SDS011;66638;50.050;21.124;2024-01-06T10:35:39;42.80;;;21.70;;
77524;SDS011;66638;50.050;21.124;2024-01-06T10:38:26;43.00;;;25.90;;
77524;SDS011;66638;50.050;21.124;2024-01-06T10:41:12;43.30;;;27.30;;
77524;SDS011;66638;50.050;21.124;2024-01-06T10:43:58;40.00;;;24.00;;
77524;SDS011;66638;50.050;21.124;2024-01-06T10:46:46;40.30;;;23.10;;
77524;SDS011;66638;50.050;21.124;2024-01-06T10:49:33;41.30;;;25.30;;
77524;SDS011;66638;50.050;21.124;2024-01-06T10:52:20;44.00;;;24.80;;
77524;SDS011;66638;50.050;21.124;2024-01-06T10:55:08;40.70;;;23.90;;
77524;SDS011;66638;50.050;21.124;2024-01-06T10:57:54;40.00;;;21.80;;
77524;SDS011;66638;50.050;21.124;2024-01-06T11:00:41;35.70;;;21.80;;
77524;SDS011;66638;50.050;21.124;2024-01-06T11:03:28;40.90;;;24.10;;
77524;SDS011;66638;50.050;21.124;2024-01-06T11:06:14;40.10;;;25.60;;
77524;SDS011;66638;50.050;21.124;2024-01-06T11:09:07;35.50;;;21.70;;
77524;SDS011;66638;50.050;21.124;2024-01-06T11:12:16;36.40;;;21.40;;
77524;SDS011;66638;50.050;21.124;2024-01-06T11:15:03;37.20;;;21.20;;
77524;SDS011;66638;50.050;21.124;2024-01-06T11:17:50;36.50;;;20.80;;
77524;SDS011;66638;50.050;21.124;2024-01-06T11:24:19;38.40;;;22.60;;
77524;SDS011;66638;50.050;21.124;2024-01-06T11:27:05;39.10;;;22.20;;
77524;SDS011;66638;50.050;21.124;2024-01-06T11:29:55;40.10;;;21.90;;
77524;SDS011;66638;50.050;21.124;2024-01-06T11:32:43;37.80;;;22.40;;
77524;SDS011;66638;50.050;21.124;2024-01-06T11:35:32;41.50;;;22.80;;
77524;SDS011;66638;50.050;21.124;2024-01-06T11:38:18;38.50;;;22.40;;
77524;SDS011;66638;50.050;21.124;2024-01-06T11:41:05;36.80;;;20.40;;
77524;SDS011;66638;50.050;21.124;2024-01-06T11:43:53;38.80;;;21.20;;
77524;SDS011;66638;50.050;21.124;2024-01-06T11:46:39;42.40;;;23.60;;
77524;SDS011;66638;50.050;21.124;2024-01-06T11:49:27;36.70;;;20.80;;
77524;SDS011;66638;50.050;21.124;2024-01-06T11:52:16;40.70;;;20.80;;
77524;SDS011;66638;50.050;21.124;2024-01-06T11:55:03;39.40;;;22.40;;
77524;SDS011;66638;50.050;21.124;2024-01-06T11:57:50;42.10;;;21.20;;
77524;SDS011;66638;50.050;21.124;2024-01-06T12:00:36;41.50;;;22.50;;
77524;SDS011;66638;50.050;21.124;2024-01-06T12:03:24;40.00;;;20.80;;
77524;SDS011;66638;50.050;21.124;2024-01-06T12:06:11;39.30;;;21.20;;
77524;SDS011;66638;50.050;21.124;2024-01-06T12:09:04;37.80;;;22.60;;
77524;SDS011;66638;50.050;21.124;2024-01-06T12:12:00;36.00;;;20.20;;
77524;SDS011;66638;50.050;21.124;2024-01-06T12:14:47;48.70;;;24.50;;
77524;SDS011;66638;50.050;21.124;2024-01-06T12:17:33;35.10;;;17.30;;
77524;SDS011;66638;50.050;21.124;2024-01-06T12:20:19;34.80;;;18.20;;
77524;SDS011;66638;50.050;21.124;2024-01-06T12:23:04;37.60;;;20.40;;
77524;SDS011;66638;50.050;21.124;2024-01-06T12:25:51;28.50;;;15.80;;
77524;SDS011;66638;50.050;21.124;2024-01-06T12:28:37;38.10;;;20.90;;
77524;SDS011;66638;50.050;21.124;2024-01-06T12:31:22;30.00;;;16.80;;
77524;SDS011;66638;50.050;21.124;2024-01-06T12:34:09;24.10;;;13.10;;
77524;SDS011;66638;50.050;21.124;2024-01-06T12:36:56;34.80;;;21.20;;
77524;SDS011;66638;50.050;21.124;2024-01-06T12:39:41;36.20;;;21.10;;
77524;SDS011;66638;50.050;21.124;2024-01-06T12:42:28;36.80;;;20.60;;
77524;SDS011;66638;50.050;21.124;2024-01-06T12:45:14;29.20;;;18.10;;
77524;SDS011;66638;50.050;21.124;2024-01-06T12:48:01;34.10;;;19.10;;
77524;SDS011;66638;50.050;21.124;2024-01-06T12:50:47;32.60;;;18.50;;
77524;SDS011;66638;50.050;21.124;2024-01-06T12:53:33;37.60;;;20.80;;
77524;SDS011;66638;50.050;21.124;2024-01-06T12:56:19;17.60;;;10.80;;
77524;SDS011;66638;50.050;21.124;2024-01-06T12:59:06;28.80;;;17.70;;
77524;SDS011;66638;50.050;21.124;2024-01-06T13:01:52;31.10;;;17.30;;
77524;SDS011;66638;50.050;21.124;2024-01-06T13:04:38;28.80;;;15.90;;
77524;SDS011;66638;50.050;21.124;2024-01-06T13:07:25;27.90;;;15.00;;
77524;SDS011;66638;50.050;21.124;2024-01-06T13:10:11;30.30;;;17.40;;
77524;SDS011;66638;50.050;21.124;2024-01-06T13:12:57;24.30;;;14.80;;
77524;SDS011;66638;50.050;21.124;2024-01-06T13:15:43;27.40;;;16.10;;
77524;SDS011;66638;50.050;21.124;2024-01-06T13:18:31;26.30;;;14.10;;
77524;SDS011;66638;50.050;21.124;2024-01-06T13:21:17;27.90;;;15.60;;
77524;SDS011;66638;50.050;21.124;2024-01-06T13:24:03;31.30;;;18.10;;
77524;SDS011;66638;50.050;21.124;2024-01-06T13:26:52;24.90;;;14.50;;
77524;SDS011;66638;50.050;21.124;2024-01-06T13:29:38;25.40;;;15.70;;
77524;SDS011;66638;50.050;21.124;2024-01-06T13:32:24;25.50;;;14.70;;
77524;SDS011;66638;50.050;21.124;2024-01-06T13:35:12;22.00;;;12.80;;
77524;SDS011;66638;50.050;21.124;2024-01-06T13:37:59;30.00;;;17.80;;
77524;SDS011;66638;50.050;21.124;2024-01-06T13:40:45;25.90;;;14.40;;
77524;SDS011;66638;50.050;21.124;2024-01-06T13:43:31;23.00;;;13.20;;
77524;SDS011;66638;50.050;21.124;2024-01-06T13:46:17;22.10;;;12.20;;
77524;SDS011;66638;50.050;21.124;2024-01-06T13:49:03;25.90;;;15.30;;
77524;SDS011;66638;50.050;21.124;2024-01-06T13:51:49;22.30;;;13.70;;
77524;SDS011;66638;50.050;21.124;2024-01-06T13:54:35;21.20;;;13.10;;
77524;SDS011;66638;50.050;21.124;2024-01-06T13:57:21;15.50;;;8.80;;
77524;SDS011;66638;50.050;21.124;2024-01-06T14:00:07;25.50;;;13.80;;
77524;SDS011;66638;50.050;21.124;2024-01-06T14:02:57;25.30;;;13.30;;
77524;SDS011;66638;50.050;21.124;2024-01-06T14:05:43;19.60;;;12.40;;
77524;SDS011;66638;50.050;21.124;2024-01-06T14:08:29;15.40;;;7.90;;
77524;SDS011;66638;50.050;21.124;2024-01-06T14:11:15;23.50;;;12.80;;
77524;SDS011;66638;50.050;21.124;2024-01-06T14:14:01;18.20;;;8.90;;
77524;SDS011;66638;50.050;21.124;2024-01-06T14:16:48;23.40;;;14.10;;
77524;SDS011;66638;50.050;21.124;2024-01-06T14:19:34;21.50;;;13.20;;
77524;SDS011;66638;50.050;21.124;2024-01-06T14:22:20;23.50;;;12.80;;
77524;SDS011;66638;50.050;21.124;2024-01-06T14:25:06;19.60;;;11.80;;
77524;SDS011;66638;50.050;21.124;2024-01-06T14:27:52;20.10;;;12.00;;
77524;SDS011;66638;50.050;21.124;2024-01-06T14:30:38;24.70;;;13.60;;
77524;SDS011;66638;50.050;21.124;2024-01-06T14:33:25;25.90;;;13.40;;
77524;SDS011;66638;50.050;21.124;2024-01-06T14:36:12;24.10;;;13.70;;
77524;SDS011;66638;50.050;21.124;2024-01-06T14:38:58;23.60;;;14.10;;
77524;SDS011;66638;50.050;21.124;2024-01-06T14:41:44;23.50;;;12.60;;
77524;SDS011;66638;50.050;21.124;2024-01-06T14:44:30;24.60;;;13.40;;
77524;SDS011;66638;50.050;21.124;2024-01-06T14:47:16;24.90;;;13.60;;
77524;SDS011;66638;50.050;21.124;2024-01-06T14:50:02;24.20;;;14.60;;
77524;SDS011;66638;50.050;21.124;2024-01-06T14:52:48;25.90;;;14.30;;
77524;SDS011;66638;50.050;21.124;2024-01-06T14:55:34;21.00;;;11.20;;
77524;SDS011;66638;50.050;21.124;2024-01-06T14:58:20;26.60;;;15.70;;
77524;SDS011;66638;50.050;21.124;2024-01-06T15:01:06;25.90;;;15.70;;
77524;SDS011;66638;50.050;21.124;2024-01-06T15:03:52;23.00;;;14.90;;
77524;SDS011;66638;50.050;21.124;2024-01-06T15:06:38;29.60;;;17.80;;
77524;SDS011;66638;50.050;21.124;2024-01-06T15:09:24;27.70;;;15.90;;
77524;SDS011;66638;50.050;21.124;2024-01-06T15:14:58;27.40;;;15.80;;
77524;SDS011;66638;50.050;21.124;2024-01-06T15:17:44;29.50;;;17.50;;
77524;SDS011;66638;50.050;21.124;2024-01-06T15:20:30;31.90;;;18.10;;
77524;SDS011;66638;50.050;21.124;2024-01-06T15:23:16;28.00;;;16.20;;
77524;SDS011;66638;50.050;21.124;2024-01-06T15:26:04;29.70;;;17.80;;
77524;SDS011;66638;50.050;21.124;2024-01-06T15:28:50;31.50;;;15.80;;
77524;SDS011;66638;50.050;21.124;2024-01-06T15:31:36;26.20;;;15.10;;
77524;SDS011;66638;50.050;21.124;2024-01-06T15:34:23;24.10;;;13.10;;
77524;SDS011;66638;50.050;21.124;2024-01-06T15:37:09;25.70;;;15.30;;
77524;SDS011;66638;50.050;21.124;2024-01-06T15:39:55;25.70;;;15.60;;
77524;SDS011;66638;50.050;21.124;2024-01-06T15:42:42;25.80;;;14.20;;
77524;SDS011;66638;50.050;21.124;2024-01-06T15:45:28;19.10;;;12.00;;
77524;SDS011;66638;50.050;21.124;2024-01-06T15:48:15;26.70;;;16.20;;
77524;SDS011;66638;50.050;21.124;2024-01-06T15:51:03;21.40;;;13.40;;
77524;SDS011;66638;50.050;21.124;2024-01-06T15:53:51;23.60;;;14.10;;
77524;SDS011;66638;50.050;21.124;2024-01-06T15:56:37;23.10;;;13.20;;
77524;SDS011;66638;50.050;21.124;2024-01-06T15:59:23;19.70;;;12.00;;
77524;SDS011;66638;50.050;21.124;2024-01-06T16:02:09;19.70;;;13.20;;
77524;SDS011;66638;50.050;21.124;2024-01-06T16:04:55;21.50;;;13.60;;
77524;SDS011;66638;50.050;21.124;2024-01-06T16:07:43;21.90;;;14.40;;
77524;SDS011;66638;50.050;21.124;2024-01-06T16:10:29;14.60;;;9.90;;
77524;SDS011;66638;50.050;21.124;2024-01-06T16:13:15;18.80;;;11.90;;